Time;durP1;ratioP1;P1;durP2;ratioP2;P2;SDS_P1;SDS_P2;PMS_P1;PMS_P2;Temp;Humidity;BMP_temperature;BMP_pressure;BME280_temperature;BME280_humidity;BME280_pressure;Samples;Min_cycle;Max_cycle;Signal;HPM_P1;HPM_P2
2021/11/30 00:01:45;;;;;;;8.90;4.95;;;3.10;99.90;;;;;;5062048;28;20032;-78
2021/11/30 00:04:12;;;;;;;7.22;5.07;;;3.00;99.90;;;;;;5074244;28;20041;-78
2021/11/30 00:06:38;;;;;;;7.40;4.72;;;3.00;99.90;;;;;;5057107;28;20115;-79
2021/11/30 00:09:23;;;;;;;5.22;4.55;;;3.00;99.90;;;;;;5069587;28;20385;-77
2021/11/30 00:11:50;;;;;;;8.43;5.22;;;3.00;99.90;;;;;;5068885;28;20042;-78
2021/11/30 00:14:16;;;;;;;4.50;4.10;;;3.00;99.90;;;;;;5072272;28;20365;-77
2021/11/30 00:16:41;;;;;;;5.38;4.70;;;3.00;99.90;;;;;;5064037;28;20044;-78
2021/11/30 00:19:07;;;;;;;6.35;4.60;;;3.00;99.90;;;;;;5063399;28;20476;-79
2021/11/30 00:21:33;;;;;;;6.30;4.40;;;3.00;99.90;;;;;;5071597;28;20020;-78
2021/11/30 00:23:58;;;;;;;4.80;4.20;;;2.90;99.90;;;;;;5074207;28;20092;-78
2021/11/30 00:26:24;;;;;;;4.85;4.35;;;2.90;99.90;;;;;;5073387;28;20029;-78
2021/11/30 00:28:50;;;;;;;4.85;4.38;;;2.90;99.90;;;;;;5069911;28;20037;-79
2021/11/30 00:31:15;;;;;;;4.30;3.88;;;2.80;99.90;;;;;;5065965;28;20041;-77
2021/11/30 00:33:41;;;;;;;5.75;4.03;;;2.90;99.90;;;;;;5069965;28;20057;-78
2021/11/30 00:36:07;;;;;;;4.32;3.88;;;2.90;99.90;;;;;;5048708;28;20109;-79
2021/11/30 00:38:32;;;;;;;4.55;3.75;;;2.90;99.90;;;;;;5060788;28;20056;-78
2021/11/30 00:40:58;;;;;;;4.32;3.90;;;2.80;99.90;;;;;;5055514;28;20059;-78
2021/11/30 00:43:31;;;;;;;4.65;4.25;;;2.80;99.90;;;;;;5070301;28;20039;-77
2021/11/30 00:45:59;;;;;;;4.88;3.40;;;2.80;99.90;;;;;;5068353;28;20017;-77
2021/11/30 00:48:30;;;;;;;3.88;3.58;;;2.70;99.90;;;;;;5068963;28;20028;-79
2021/11/30 00:50:58;;;;;;;3.55;3.17;;;2.70;99.90;;;;;;5054625;28;20035;-77
2021/11/30 00:53:24;;;;;;;4.53;4.10;;;2.70;99.90;;;;;;5079546;28;20045;-77
2021/11/30 00:55:50;;;;;;;4.57;3.65;;;2.80;99.90;;;;;;5080345;28;20056;-79
2021/11/30 00:58:15;;;;;;;3.95;3.55;;;2.80;99.90;;;;;;5063142;28;20017;-78
2021/11/30 01:00:41;;;;;;;3.70;3.40;;;2.80;99.90;;;;;;5073603;28;20045;-77
2021/11/30 01:03:07;;;;;;;5.13;3.38;;;2.80;99.90;;;;;;5063384;28;20094;-78
2021/11/30 01:05:35;;;;;;;4.05;3.72;;;2.80;99.90;;;;;;5063760;28;20052;-78
2021/11/30 01:08:01;;;;;;;4.32;3.03;;;2.80;99.90;;;;;;5063016;28;20036;-78
2021/11/30 01:10:27;;;;;;;3.92;3.63;;;2.80;99.90;;;;;;5065058;28;20028;-79
2021/11/30 01:12:53;;;;;;;3.95;3.45;;;2.80;99.90;;;;;;5062332;28;20056;-79
2021/11/30 01:15:20;;;;;;;5.07;3.65;;;2.80;99.90;;;;;;5061475;28;20025;-79
2021/11/30 01:17:46;;;;;;;3.58;3.28;;;2.80;99.90;;;;;;5062344;28;20423;-78
2021/11/30 01:20:12;;;;;;;4.57;3.92;;;2.80;99.90;;;;;;5067204;28;20025;-78
2021/11/30 01:22:39;;;;;;;4.47;3.83;;;2.80;99.90;;;;;;5065111;28;20024;-78
2021/11/30 01:25:05;;;;;;;5.82;3.22;;;2.90;99.90;;;;;;5074956;28;20198;-78
2021/11/30 01:27:31;;;;;;;4.50;3.72;;;2.90;99.90;;;;;;5050085;28;20035;-78
2021/11/30 01:29:56;;;;;;;3.95;3.55;;;2.90;99.90;;;;;;5060395;28;20084;-78
2021/11/30 01:32:22;;;;;;;5.20;3.83;;;2.80;99.90;;;;;;5042104;28;20025;-78
2021/11/30 01:34:47;;;;;;;3.30;3.00;;;2.90;99.90;;;;;;5060700;28;20025;-78
2021/11/30 01:37:15;;;;;;;4.45;3.53;;;2.90;99.90;;;;;;5065364;28;20028;-77
2021/11/30 01:39:45;;;;;;;4.35;3.33;;;2.90;99.90;;;;;;5066193;28;20017;-77
2021/11/30 01:42:13;;;;;;;4.13;3.80;;;2.90;99.90;;;;;;5065865;28;20253;-77
2021/11/30 01:49:53;;;;;;;5.30;3.35;;;2.90;99.90;;;;;;5061779;28;20049;-78
2021/11/30 01:52:19;;;;;;;4.47;3.40;;;2.90;99.90;;;;;;5063719;28;20103;-78
2021/11/30 01:54:45;;;;;;;6.55;3.38;;;2.90;99.90;;;;;;5046687;28;20024;-79
2021/11/30 01:57:15;;;;;;;5.93;4.03;;;2.90;99.90;;;;;;5065761;28;20033;-78
2021/11/30 01:59:42;;;;;;;3.42;3.13;;;2.90;99.90;;;;;;5069617;28;20032;-77
2021/11/30 02:02:08;;;;;;;4.90;3.35;;;3.00;99.90;;;;;;5069528;28;20031;-78
2021/11/30 02:04:36;;;;;;;5.35;3.13;;;2.90;99.90;;;;;;5064051;28;20035;-78
2021/11/30 02:07:02;;;;;;;4.05;3.17;;;2.90;99.90;;;;;;5069452;28;20310;-78
2021/11/30 02:09:28;;;;;;;4.38;2.67;;;2.90;99.90;;;;;;5069628;28;20096;-78
2021/11/30 02:11:53;;;;;;;3.05;2.70;;;3.00;99.90;;;;;;5068525;28;20055;-77
2021/11/30 02:14:19;;;;;;;3.08;2.67;;;3.00;99.90;;;;;;5045033;28;20029;-78
2021/11/30 02:16:46;;;;;;;4.57;3.63;;;3.00;99.90;;;;;;5060169;28;20032;-78
2021/11/30 02:19:12;;;;;;;3.78;3.22;;;3.00;99.90;;;;;;5044790;28;20056;-79
2021/11/30 02:21:42;;;;;;;3.40;2.90;;;3.00;99.90;;;;;;5060103;28;20424;-78
2021/11/30 02:24:09;;;;;;;3.30;2.95;;;3.00;99.90;;;;;;5044555;28;20125;-77
2021/11/30 02:26:37;;;;;;;4.90;2.47;;;3.00;99.90;;;;;;5044340;28;20381;-79
2021/11/30 02:29:05;;;;;;;7.40;2.70;;;3.00;99.90;;;;;;5060148;28;20033;-79
2021/11/30 02:31:46;;;;;;;3.20;2.40;;;3.00;99.90;;;;;;5043331;28;20463;-79
2021/11/30 02:34:13;;;;;;;4.03;2.63;;;3.00;99.90;;;;;;5040888;28;20059;-77
2021/11/30 02:36:50;;;;;;;3.90;2.55;;;3.00;99.90;;;;;;5068458;28;20029;-79
2021/11/30 02:39:18;;;;;;;3.92;2.55;;;3.00;99.90;;;;;;5060771;28;20033;-78
2021/11/30 02:41:45;;;;;;;3.53;2.72;;;3.00;99.90;;;;;;5046014;28;20032;-78
2021/11/30 02:44:15;;;;;;;6.82;2.47;;;3.00;99.90;;;;;;5065666;28;20029;-78
2021/11/30 02:46:47;;;;;;;4.82;3.08;;;3.00;99.90;;;;;;5042327;28;20025;-79
2021/11/30 02:49:16;;;;;;;2.38;2.17;;;3.00;99.90;;;;;;5060534;28;20056;-79
2021/11/30 02:51:46;;;;;;;4.63;1.65;;;3.00;99.90;;;;;;5060748;28;20159;-78
2021/11/30 02:54:14;;;;;;;5.35;2.10;;;3.00;99.90;;;;;;5058725;28;20017;-77
2021/11/30 02:56:50;;;;;;;4.70;2.25;;;3.00;99.90;;;;;;5042617;28;20024;-79
2021/11/30 02:59:16;;;;;;;3.28;1.88;;;3.00;99.90;;;;;;5058515;28;20396;-78
2021/11/30 03:01:50;;;;;;;3.88;2.78;;;3.00;99.90;;;;;;5059367;28;20535;-78
2021/11/30 03:04:16;;;;;;;3.72;1.88;;;2.90;99.90;;;;;;5061013;28;20108;-79
2021/11/30 03:06:42;;;;;;;4.90;1.80;;;2.90;99.90;;;;;;5062526;28;20021;-78
2021/11/30 03:09:09;;;;;;;10.02;2.58;;;2.80;99.90;;;;;;5068386;28;20076;-78
2021/11/30 03:11:35;;;;;;;3.00;1.85;;;2.80;99.90;;;;;;5050446;28;20031;-78
2021/11/30 03:14:01;;;;;;;1.95;1.73;;;2.70;99.90;;;;;;5052387;28;20108;-77
2021/11/30 03:16:27;;;;;;;2.65;2.00;;;2.70;99.90;;;;;;5068514;28;20005;-79
2021/11/30 03:18:52;;;;;;;3.92;1.80;;;2.60;99.90;;;;;;5075900;28;20035;-78
2021/11/30 03:21:18;;;;;;;6.97;2.08;;;2.60;99.90;;;;;;5075791;28;20025;-79
2021/11/30 03:23:44;;;;;;;3.22;1.70;;;2.60;99.90;;;;;;5071541;28;20041;-78
2021/11/30 03:26:10;;;;;;;4.40;1.88;;;2.60;99.90;;;;;;5062519;28;20029;-78
2021/11/30 03:28:36;;;;;;;2.83;1.65;;;2.70;99.90;;;;;;5049152;28;20025;-78
2021/11/30 03:31:04;;;;;;;2.88;1.70;;;2.60;99.90;;;;;;5052962;28;20027;-77
2021/11/30 03:36:15;;;;;;;5.32;2.00;;;2.60;99.90;;;;;;5073052;28;20028;-79
2021/11/30 03:38:41;;;;;;;3.22;1.65;;;2.60;99.90;;;;;;5069623;28;20163;-79
2021/11/30 03:41:08;;;;;;;3.10;1.83;;;2.60;99.90;;;;;;5069466;28;20013;-78
2021/11/30 03:43:34;;;;;;;3.78;1.90;;;2.70;99.90;;;;;;5069940;28;20028;-79
2021/11/30 03:45:59;;;;;;;7.25;2.13;;;2.70;99.90;;;;;;5064885;28;20031;-78
2021/11/30 03:48:25;;;;;;;2.65;1.48;;;2.80;99.90;;;;;;5069296;28;20033;-78
2021/11/30 03:50:51;;;;;;;9.02;1.73;;;2.80;99.90;;;;;;5066799;28;20078;-79
2021/11/30 03:53:16;;;;;;;3.05;1.60;;;2.80;99.90;;;;;;5068701;28;20439;-79
2021/11/30 03:55:42;;;;;;;2.97;1.70;;;2.90;99.90;;;;;;5065409;28;20013;-78
2021/11/30 03:58:08;;;;;;;2.10;1.50;;;2.90;99.90;;;;;;5058149;28;20024;-79
2021/11/30 04:00:33;;;;;;;3.45;1.73;;;2.90;99.90;;;;;;5064105;28;20028;-79
2021/11/30 04:02:59;;;;;;;5.45;2.03;;;3.00;99.90;;;;;;5055163;28;20032;-78
2021/11/30 04:05:24;;;;;;;1.73;1.27;;;3.10;99.90;;;;;;5076773;28;20038;-79
2021/11/30 04:07:50;;;;;;;2.90;1.65;;;3.10;99.90;;;;;;5081022;28;20023;-79
2021/11/30 04:10:16;;;;;;;5.53;1.67;;;3.20;99.90;;;;;;5063444;28;20022;-78
2021/11/30 04:12:41;;;;;;;2.33;2.05;;;3.10;99.90;;;;;;5074833;28;20041;-78
2021/11/30 04:15:07;;;;;;;5.95;1.98;;;3.00;99.90;;;;;;5064973;28;20021;-80
2021/11/30 04:17:33;;;;;;;3.40;1.95;;;3.10;99.90;;;;;;5062607;28;20032;-78
2021/11/30 04:19:59;;;;;;;1.83;1.65;;;3.20;99.90;;;;;;5046020;28;20032;-79
2021/11/30 04:22:25;;;;;;;2.53;1.65;;;3.10;99.90;;;;;;5066520;28;20021;-80
2021/11/30 04:24:51;;;;;;;2.38;1.60;;;3.10;99.90;;;;;;5092494;22;20067;-74
2021/11/30 04:27:17;;;;;;;7.13;1.63;;;3.20;99.90;;;;;;5069994;28;20059;-74
2021/11/30 04:29:43;;;;;;;2.30;1.70;;;3.20;99.90;;;;;;5069227;28;20040;-74
2021/11/30 04:32:10;;;;;;;3.08;1.67;;;3.10;99.90;;;;;;5067961;28;20021;-74
2021/11/30 04:34:35;;;;;;;5.05;1.83;;;3.00;99.90;;;;;;5065669;28;20091;-74
2021/11/30 04:37:01;;;;;;;2.88;1.70;;;3.00;99.90;;;;;;5065946;28;20096;-74
2021/11/30 04:39:27;;;;;;;2.22;1.58;;;3.00;99.90;;;;;;5065887;28;20032;-74
2021/11/30 04:41:52;;;;;;;4.72;1.92;;;2.90;99.90;;;;;;5048338;28;20020;-73
2021/11/30 04:44:20;;;;;;;8.02;1.88;;;2.90;99.90;;;;;;5060422;28;20120;-73
2021/11/30 04:46:54;;;;;;;3.63;1.83;;;2.90;99.90;;;;;;5058973;28;20385;-73
2021/11/30 04:51:58;;;;;;;2.63;2.08;;;2.80;99.90;;;;;;5057590;28;20036;-74
2021/11/30 04:54:25;;;;;;;3.22;1.88;;;2.80;99.90;;;;;;5057500;28;20098;-74
2021/11/30 04:56:51;;;;;;;2.95;2.20;;;2.80;99.90;;;;;;5058081;28;20033;-74
2021/11/30 04:59:18;;;;;;;1.83;1.65;;;3.00;99.90;;;;;;5058396;28;20035;-74
2021/11/30 05:01:44;;;;;;;4.18;1.60;;;2.90;99.90;;;;;;5058120;28;20162;-74
2021/11/30 05:04:10;;;;;;;4.18;2.10;;;2.80;99.90;;;;;;5039154;28;20029;-74
2021/11/30 05:06:37;;;;;;;3.00;2.42;;;2.80;99.90;;;;;;5057724;28;20020;-74
2021/11/30 05:09:04;;;;;;;5.20;1.88;;;2.80;99.90;;;;;;5056816;28;20025;-74
2021/11/30 05:11:30;;;;;;;2.72;1.77;;;2.80;99.90;;;;;;5056788;28;20033;-74
2021/11/30 05:13:56;;;;;;;2.85;2.00;;;2.90;99.90;;;;;;5056645;28;20025;-74
2021/11/30 05:16:21;;;;;;;3.53;2.30;;;2.80;99.90;;;;;;5056934;28;20029;-75
2021/11/30 05:18:47;;;;;;;3.13;1.98;;;2.80;99.90;;;;;;5056448;28;20025;-74
2021/11/30 05:21:12;;;;;;;3.45;1.83;;;2.80;99.90;;;;;;5039522;28;20048;-73
2021/11/30 05:23:40;;;;;;;2.70;1.73;;;2.80;99.90;;;;;;5038505;28;20037;-74
2021/11/30 05:26:06;;;;;;;2.67;1.45;;;2.80;99.90;;;;;;5056460;28;20020;-74
2021/11/30 05:28:34;;;;;;;3.35;2.50;;;2.80;99.90;;;;;;5056617;28;20473;-74
2021/11/30 05:31:01;;;;;;;3.20;2.10;;;2.70;99.90;;;;;;5056076;28;20045;-74
2021/11/30 05:33:27;;;;;;;6.07;1.80;;;2.70;99.90;;;;;;5055547;28;20075;-73
2021/11/30 05:35:52;;;;;;;4.13;2.20;;;2.70;99.90;;;;;;5056864;28;20029;-73
2021/11/30 05:38:18;;;;;;;4.15;1.88;;;2.70;99.90;;;;;;5038523;28;20107;-74
2021/11/30 05:40:43;;;;;;;4.40;2.22;;;2.70;99.90;;;;;;5037758;28;20021;-73
2021/11/30 05:43:10;;;;;;;2.78;2.08;;;2.70;99.90;;;;;;5055507;28;20078;-73
2021/11/30 05:45:36;;;;;;;2.45;2.25;;;2.60;99.90;;;;;;5055402;28;20078;-74
2021/11/30 05:48:02;;;;;;;5.70;2.92;;;2.60;99.90;;;;;;5056061;28;20435;-73
2021/11/30 05:50:28;;;;;;;5.20;2.67;;;2.70;99.90;;;;;;5041511;28;20025;-74
2021/11/30 05:52:53;;;;;;;3.95;2.47;;;2.60;99.90;;;;;;5068162;28;20013;-74
2021/11/30 05:55:19;;;;;;;6.35;5.10;;;2.50;99.90;;;;;;5065379;28;20035;-74
2021/11/30 05:57:44;;;;;;;5.22;3.95;;;2.60;99.90;;;;;;5071615;28;20025;-75
2021/11/30 06:00:12;;;;;;;3.08;2.80;;;2.50;99.90;;;;;;5053588;28;20025;-73
2021/11/30 06:02:57;;;;;;;5.47;3.40;;;2.50;99.90;;;;;;5066867;28;20025;-74
2021/11/30 06:05:24;;;;;;;5.13;3.08;;;2.50;99.90;;;;;;5059931;28;20025;-74
2021/11/30 06:07:50;;;;;;;7.75;3.47;;;2.50;99.90;;;;;;5063980;28;20029;-72
2021/11/30 06:10:15;;;;;;;5.50;3.42;;;2.40;99.90;;;;;;5048362;28;20036;-74
2021/11/30 06:12:41;;;;;;;3.85;3.20;;;2.60;99.90;;;;;;5062760;28;20033;-73
2021/11/30 06:15:07;;;;;;;10.27;5.63;;;2.60;99.90;;;;;;5064598;28;20040;-73
2021/11/30 06:17:33;;;;;;;3.15;2.55;;;2.60;99.90;;;;;;5066294;28;20092;-74
2021/11/30 06:19:59;;;;;;;3.17;2.78;;;2.60;99.90;;;;;;5062816;28;20036;-74
2021/11/30 06:22:25;;;;;;;5.03;2.83;;;2.50;99.90;;;;;;5056180;28;20017;-74
2021/11/30 06:24:50;;;;;;;5.32;3.80;;;2.60;99.90;;;;;;5055477;28;20036;-74
2021/11/30 06:27:16;;;;;;;3.70;2.75;;;2.50;99.90;;;;;;5055211;28;20024;-74
2021/11/30 06:29:42;;;;;;;5.28;3.10;;;2.50;99.90;;;;;;5056047;28;20365;-73
2021/11/30 06:32:10;;;;;;;5.15;3.40;;;2.40;99.90;;;;;;5055390;28;20369;-73
2021/11/30 06:34:36;;;;;;;4.50;3.22;;;2.40;99.90;;;;;;5054730;28;20017;-74
2021/11/30 06:37:06;;;;;;;7.80;3.75;;;2.40;99.90;;;;;;5055282;28;20032;-74
2021/11/30 06:39:32;;;;;;;4.38;3.92;;;2.40;99.90;;;;;;5037517;28;20107;-74
2021/11/30 06:41:58;;;;;;;5.65;3.60;;;2.40;99.90;;;;;;5055160;28;20033;-73
2021/11/30 06:44:24;;;;;;;5.50;3.75;;;2.40;99.90;;;;;;5055224;28;20112;-74
2021/11/30 06:46:49;;;;;;;6.75;3.97;;;2.30;99.90;;;;;;5054516;28;20100;-73
2021/11/30 06:49:15;;;;;;;6.03;4.10;;;2.10;99.90;;;;;;5054312;28;20531;-73
2021/11/30 06:51:41;;;;;;;4.43;4.03;;;2.10;99.90;;;;;;5054388;28;20488;-73
2021/11/30 06:54:06;;;;;;;6.68;3.92;;;2.00;99.90;;;;;;5056330;28;20025;-73
2021/11/30 06:56:33;;;;;;;7.28;3.45;;;2.00;99.90;;;;;;5038935;28;20021;-74
2021/11/30 06:58:59;;;;;;;6.60;4.20;;;1.90;99.90;;;;;;5054539;28;20473;-74
2021/11/30 07:01:27;;;;;;;6.97;4.50;;;2.00;99.90;;;;;;5055280;28;20095;-74
2021/11/30 07:03:53;;;;;;;4.15;3.75;;;2.00;99.90;;;;;;5054438;28;20033;-74
2021/11/30 07:14:05;;;;;;;6.03;3.63;;;2.10;99.90;;;;;;5054864;28;20175;-73
2021/11/30 07:16:32;;;;;;;4.57;3.38;;;2.20;99.90;;;;;;5054107;28;20025;-74
2021/11/30 07:18:58;;;;;;;3.50;3.20;;;2.30;99.90;;;;;;5053793;28;20021;-74
2021/11/30 07:21:27;;;;;;;4.90;4.22;;;2.30;99.90;;;;;;5055737;28;20025;-73
2021/11/30 07:23:58;;;;;;;4.55;3.15;;;2.30;99.90;;;;;;5059696;28;20106;-73
2021/11/30 07:26:25;;;;;;;9.32;3.75;;;2.30;99.90;;;;;;5056199;28;20021;-73
2021/11/30 07:28:51;;;;;;;2.80;2.47;;;2.20;99.90;;;;;;5054380;28;20028;-73
2021/11/30 07:31:18;;;;;;;2.85;2.65;;;2.30;99.90;;;;;;5054484;28;20460;-74
2021/11/30 07:33:47;;;;;;;2.55;2.35;;;2.30;99.90;;;;;;5036509;28;20025;-74
2021/11/30 07:36:15;;;;;;;2.83;2.50;;;2.40;99.90;;;;;;5054567;28;20489;-73
2021/11/30 07:38:42;;;;;;;2.70;2.50;;;2.40;99.90;;;;;;5053808;28;20428;-74
2021/11/30 07:41:08;;;;;;;3.42;2.15;;;2.40;99.90;;;;;;5036033;28;20025;-73
2021/11/30 07:43:35;;;;;;;4.40;2.17;;;2.50;99.90;;;;;;5053703;28;20029;-73
2021/11/30 07:46:01;;;;;;;3.47;2.47;;;2.50;99.90;;;;;;5054456;28;20040;-73
2021/11/30 07:48:27;;;;;;;2.90;2.47;;;2.40;99.90;;;;;;5038858;28;20021;-73
2021/11/30 07:50:54;;;;;;;5.00;2.97;;;2.50;99.90;;;;;;5058312;28;20107;-74
2021/11/30 07:53:20;;;;;;;3.85;2.67;;;2.50;99.90;;;;;;5055504;28;20075;-74
2021/11/30 07:55:46;;;;;;;4.20;2.30;;;2.60;99.90;;;;;;5059441;28;20013;-73
2021/11/30 07:58:12;;;;;;;2.65;2.33;;;2.70;99.90;;;;;;5038420;28;20461;-73
2021/11/30 08:00:38;;;;;;;2.70;1.88;;;2.60;99.90;;;;;;5055889;28;20036;-73
2021/11/30 08:03:03;;;;;;;3.22;2.22;;;2.60;99.90;;;;;;5055504;28;20029;-74
2021/11/30 08:05:30;;;;;;;1.83;1.73;;;2.60;99.90;;;;;;5053697;28;20388;-73
2021/11/30 08:07:55;;;;;;;2.13;1.98;;;2.60;99.90;;;;;;5054238;28;20112;-74
2021/11/30 08:10:23;;;;;;;2.20;1.77;;;2.60;99.90;;;;;;5065032;28;20025;-74
2021/11/30 08:12:49;;;;;;;1.90;1.73;;;2.70;99.90;;;;;;5059196;28;20033;-75
2021/11/30 08:15:16;;;;;;;2.90;2.53;;;2.60;99.90;;;;;;5055896;28;20496;-73
2021/11/30 08:17:42;;;;;;;1.83;1.63;;;2.70;99.90;;;;;;5022642;28;20071;-73
2021/11/30 08:20:09;;;;;;;2.20;1.70;;;2.60;99.90;;;;;;5055570;28;20029;-73
2021/11/30 08:22:36;;;;;;;2.92;2.13;;;2.60;99.90;;;;;;5060899;28;20032;-73
2021/11/30 08:25:03;;;;;;;2.63;2.20;;;2.60;99.90;;;;;;5071238;28;20084;-73
2021/11/30 08:27:28;;;;;;;2.35;2.15;;;2.70;99.90;;;;;;5070047;28;20085;-73
2021/11/30 08:29:54;;;;;;;3.42;1.77;;;2.70;99.90;;;;;;5071292;28;20029;-74
2021/11/30 08:32:22;;;;;;;1.42;1.33;;;2.90;99.90;;;;;;5053597;28;20027;-73
2021/11/30 08:34:49;;;;;;;2.35;2.08;;;2.80;99.90;;;;;;5073194;28;20033;-73
2021/11/30 08:37:15;;;;;;;1.60;1.42;;;2.70;99.90;;;;;;5073278;28;20017;-73
2021/11/30 08:39:41;;;;;;;3.67;1.52;;;2.80;99.90;;;;;;5072719;28;20033;-73
2021/11/30 08:42:10;;;;;;;2.85;1.42;;;2.80;99.90;;;;;;5073355;28;20040;-73
2021/11/30 08:44:36;;;;;;;2.38;2.13;;;2.80;99.90;;;;;;5072468;28;20032;-72
2021/11/30 08:47:05;;;;;;;1.60;1.20;;;2.90;99.90;;;;;;5073197;28;20029;-73
2021/11/30 08:49:30;;;;;;;3.28;1.80;;;3.00;99.90;;;;;;5069798;28;20096;-73
2021/11/30 08:51:57;;;;;;;3.72;1.58;;;3.10;99.90;;;;;;5065452;28;20036;-73
2021/11/30 08:54:28;;;;;;;3.13;1.70;;;3.10;99.90;;;;;;5069315;28;20391;-73
2021/11/30 08:56:54;;;;;;;7.00;1.92;;;3.10;99.90;;;;;;5068470;28;20052;-74
2021/11/30 08:59:19;;;;;;;2.47;1.65;;;2.90;99.90;;;;;;5066171;28;20032;-73
2021/11/30 09:01:46;;;;;;;2.15;1.92;;;2.90;99.90;;;;;;5075193;28;20029;-73
2021/11/30 09:04:12;;;;;;;2.70;1.70;;;2.90;99.90;;;;;;5068528;28;20033;-73
2021/11/30 09:06:38;;;;;;;5.00;1.67;;;3.00;99.90;;;;;;5062338;28;20049;-73
2021/11/30 09:09:09;;;;;;;2.30;1.67;;;3.10;99.90;;;;;;5041106;28;20029;-73
2021/11/30 09:11:36;;;;;;;1.77;1.50;;;3.20;99.90;;;;;;5040431;28;20021;-74
2021/11/30 09:14:03;;;;;;;1.95;1.85;;;3.20;99.90;;;;;;5059167;28;20381;-73
2021/11/30 09:16:29;;;;;;;1.77;1.50;;;3.40;99.90;;;;;;5038698;28;20021;-74
2021/11/30 09:18:56;;;;;;;1.75;1.27;;;3.30;99.90;;;;;;5057985;28;20380;-74
2021/11/30 09:21:22;;;;;;;1.88;1.52;;;3.30;99.90;;;;;;5039513;28;20033;-73
2021/11/30 09:23:47;;;;;;;2.00;1.80;;;3.20;99.90;;;;;;5039322;28;20036;-73
2021/11/30 09:26:13;;;;;;;2.22;1.52;;;3.20;99.90;;;;;;5057474;28;20441;-74
2021/11/30 09:28:39;;;;;;;1.70;1.60;;;3.20;99.90;;;;;;5057170;28;20396;-74
2021/11/30 09:31:05;;;;;;;2.65;1.38;;;3.20;99.90;;;;;;5064834;28;20036;-72
2021/11/30 09:33:31;;;;;;;3.50;1.80;;;3.30;99.90;;;;;;5069899;28;20124;-74
2021/11/30 09:35:56;;;;;;;1.50;1.30;;;3.30;99.90;;;;;;5062913;28;20472;-74
2021/11/30 09:38:22;;;;;;;3.50;1.85;;;3.40;99.90;;;;;;5057440;28;20047;-74
2021/11/30 09:40:50;;;;;;;2.50;1.30;;;3.40;99.90;;;;;;5058324;28;20043;-72
2021/11/30 09:43:18;;;;;;;1.27;1.15;;;3.40;99.90;;;;;;5055152;28;20032;-73
2021/11/30 09:45:44;;;;;;;1.17;0.95;;;3.40;99.90;;;;;;5067581;28;20028;-74
2021/11/30 09:48:11;;;;;;;2.97;1.40;;;3.50;99.90;;;;;;5041539;28;20384;-74
2021/11/30 09:50:39;;;;;;;1.80;1.70;;;3.50;99.90;;;;;;5057793;28;20495;-74
2021/11/30 09:53:06;;;;;;;1.77;1.52;;;3.50;99.90;;;;;;5057132;28;20037;-74
2021/11/30 09:55:32;;;;;;;1.55;1.10;;;3.40;99.90;;;;;;5057709;28;20029;-74
2021/11/30 09:57:58;;;;;;;2.42;1.40;;;3.40;99.90;;;;;;5037973;28;20468;-73
2021/11/30 10:00:25;;;;;;;1.40;1.10;;;3.50;99.90;;;;;;5055952;28;20070;-74
2021/11/30 10:02:51;;;;;;;3.08;1.20;;;3.50;99.90;;;;;;5056805;28;20032;-74
2021/11/30 10:05:19;;;;;;;1.73;1.45;;;3.50;99.90;;;;;;5054731;28;20024;-74
2021/11/30 10:07:48;;;;;;;2.17;1.17;;;3.50;99.90;;;;;;5037377;28;20163;-74
2021/11/30 10:10:18;;;;;;;1.25;1.13;;;3.50;99.90;;;;;;5055649;28;20021;-74
2021/11/30 10:13:07;;;;;;;2.30;1.02;;;3.50;99.90;;;;;;5055857;28;20028;-73
2021/11/30 10:15:46;;;;;;;1.27;1.00;;;3.50;99.90;;;;;;5056641;28;20475;-74
2021/11/30 10:18:23;;;;;;;1.58;1.17;;;3.60;99.90;;;;;;5060978;28;20028;-74
2021/11/30 10:20:52;;;;;;;2.60;0.98;;;3.50;99.90;;;;;;5069394;28;20023;-74
2021/11/30 10:23:17;;;;;;;2.00;1.08;;;3.60;99.90;;;;;;5079644;22;20037;-74
2021/11/30 10:25:45;;;;;;;1.00;0.90;;;3.60;99.90;;;;;;5056238;28;20026;-74
2021/11/30 10:28:17;;;;;;;1.77;1.08;;;3.60;99.90;;;;;;5037527;28;20560;-74
2021/11/30 10:30:51;;;;;;;1.35;1.00;;;3.60;99.90;;;;;;5055315;28;20436;-74
2021/11/30 10:33:24;;;;;;;2.63;0.85;;;3.60;99.90;;;;;;5054777;28;20029;-74
2021/11/30 10:35:58;;;;;;;1.15;0.90;;;3.60;99.90;;;;;;5054900;28;20098;-74
2021/11/30 10:38:32;;;;;;;0.65;0.57;;;3.60;99.90;;;;;;5038040;28;20025;-74
2021/11/30 10:41:15;;;;;;;2.28;0.68;;;3.60;99.90;;;;;;5056455;28;20388;-73
2021/11/30 10:44:03;;;;;;;0.98;0.73;;;3.60;99.90;;;;;;5055076;28;20396;-73
2021/11/30 10:46:33;;;;;;;1.00;0.93;;;3.70;99.90;;;;;;5037604;28;20116;-73
2021/11/30 10:48:59;;;;;;;1.55;0.70;;;3.70;99.90;;;;;;5055053;28;20025;-72
2021/11/30 10:51:27;;;;;;;0.70;0.70;;;3.60;99.90;;;;;;5053868;28;20029;-72
2021/11/30 10:53:59;;;;;;;0.70;0.50;;;3.70;99.90;;;;;;5036327;28;20508;-72
2021/11/30 10:56:26;;;;;;;2.10;0.80;;;3.60;99.90;;;;;;5035687;28;20024;-72
2021/11/30 10:58:55;;;;;;;0.88;0.70;;;3.60;99.90;;;;;;5035663;28;20025;-73
2021/11/30 11:01:23;;;;;;;0.70;0.60;;;3.50;99.90;;;;;;5035839;28;20432;-73
2021/11/30 11:04:01;;;;;;;0.90;0.60;;;3.60;99.90;;;;;;5035872;28;20048;-75
2021/11/30 11:06:28;;;;;;;0.57;0.57;;;3.60;99.90;;;;;;5035711;28;20025;-74
2021/11/30 11:09:02;;;;;;;1.00;0.80;;;3.50;99.90;;;;;;5041905;28;20036;-74
2021/11/30 11:11:35;;;;;;;0.70;0.60;;;3.50;99.90;;;;;;5054441;28;20048;-74
2021/11/30 11:14:15;;;;;;;1.17;0.52;;;3.60;99.90;;;;;;5036343;28;20047;-74
2021/11/30 11:16:42;;;;;;;0.65;0.65;;;3.60;99.90;;;;;;5036764;28;20024;-75
2021/11/30 11:19:09;;;;;;;0.63;0.63;;;3.60;99.90;;;;;;5055063;28;20021;-73
2021/11/30 11:21:41;;;;;;;0.85;0.60;;;3.70;99.90;;;;;;5053692;28;20086;-73
2021/11/30 11:24:10;;;;;;;2.10;0.80;;;3.60;99.90;;;;;;5035438;28;20059;-74
2021/11/30 11:26:45;;;;;;;4.68;1.02;;;3.50;99.90;;;;;;5053955;28;20021;-74
2021/11/30 11:29:12;;;;;;;0.93;0.50;;;3.50;99.90;;;;;;5054224;28;20020;-74
2021/11/30 11:31:41;;;;;;;0.77;0.45;;;3.60;99.90;;;;;;5053530;28;20078;-74
2021/11/30 11:34:09;;;;;;;1.50;0.55;;;3.60;99.90;;;;;;5052862;28;20025;-72
2021/11/30 11:36:35;;;;;;;0.50;0.50;;;3.60;99.90;;;;;;5039234;28;20021;-73
2021/11/30 11:39:03;;;;;;;0.98;0.88;;;3.70;99.90;;;;;;5064178;28;20017;-73
2021/11/30 11:41:29;;;;;;;0.60;0.60;;;3.70;99.90;;;;;;5064591;28;20024;-73
2021/11/30 11:43:55;;;;;;;1.30;0.73;;;3.80;99.90;;;;;;5061051;28;20032;-74
2021/11/30 11:46:21;;;;;;;3.00;0.40;;;3.90;99.90;;;;;;5073713;28;20021;-73
2021/11/30 11:48:56;;;;;;;2.10;0.70;;;3.80;99.90;;;;;;5074352;28;20072;-74
2021/11/30 11:51:21;;;;;;;2.25;0.77;;;3.80;99.90;;;;;;5074636;28;20027;-73
2021/11/30 11:53:56;;;;;;;0.60;0.60;;;3.90;99.90;;;;;;5056047;28;20054;-74
2021/11/30 11:56:24;;;;;;;0.73;0.60;;;3.90;99.90;;;;;;5061139;28;20056;-74
2021/11/30 11:59:09;;;;;;;0.45;0.45;;;4.00;99.90;;;;;;5057010;28;20024;-73
2021/11/30 12:01:36;;;;;;;1.05;0.55;;;4.00;99.90;;;;;;5056374;28;20025;-74
2021/11/30 12:04:04;;;;;;;0.70;0.70;;;4.00;99.90;;;;;;5054529;28;20025;-75
2021/11/30 12:06:35;;;;;;;0.82;0.60;;;4.00;99.90;;;;;;5054617;28;20025;-74
2021/11/30 12:09:15;;;;;;;0.60;0.60;;;4.00;99.90;;;;;;5054739;28;20553;-74
2021/11/30 12:11:47;;;;;;;0.65;0.50;;;3.90;99.90;;;;;;5053933;28;20392;-74
2021/11/30 12:14:23;;;;;;;0.57;0.57;;;3.90;99.90;;;;;;5053664;28;20033;-73
2021/11/30 12:17:07;;;;;;;1.63;0.55;;;3.90;99.90;;;;;;5053603;28;20151;-74
2021/11/30 12:19:40;;;;;;;0.90;0.90;;;3.90;99.90;;;;;;5035186;28;20021;-74
2021/11/30 12:22:06;;;;;;;1.38;0.50;;;4.00;99.90;;;;;;5053570;28;20036;-74
2021/11/30 12:24:53;;;;;;;1.67;0.50;;;4.00;99.90;;;;;;5035329;28;20507;-74
2021/11/30 12:27:24;;;;;;;0.95;0.65;;;4.00;99.90;;;;;;5054924;28;20508;-72
2021/11/30 12:29:52;;;;;;;0.88;0.60;;;4.00;99.90;;;;;;5063492;28;20025;-73
2021/11/30 12:32:32;;;;;;;0.75;0.70;;;4.00;99.90;;;;;;5068546;28;20027;-73
2021/11/30 12:35:09;;;;;;;0.88;0.55;;;4.10;99.90;;;;;;5065566;28;20067;-73
2021/11/30 12:37:38;;;;;;;1.80;0.60;;;4.00;99.90;;;;;;5047632;28;20036;-74
2021/11/30 12:40:09;;;;;;;1.30;0.60;;;4.00;99.90;;;;;;5056760;28;20017;-74
2021/11/30 12:42:38;;;;;;;2.47;0.57;;;4.10;99.90;;;;;;5038516;28;20028;-74
2021/11/30 12:45:09;;;;;;;1.27;0.60;;;4.10;99.90;;;;;;5057004;28;20017;-75
2021/11/30 12:47:35;;;;;;;1.00;0.50;;;4.20;99.90;;;;;;5057356;28;20125;-72
2021/11/30 12:50:01;;;;;;;0.75;0.57;;;4.20;99.90;;;;;;5056634;28;20029;-74
2021/11/30 12:52:36;;;;;;;0.45;0.40;;;4.20;99.90;;;;;;5057088;28;20025;-74
2021/11/30 12:55:02;;;;;;;0.93;0.73;;;4.20;99.90;;;;;;5038295;28;20481;-75
2021/11/30 12:57:33;;;;;;;1.90;0.65;;;4.20;99.90;;;;;;5038932;28;20035;-73
2021/11/30 13:00:11;;;;;;;1.70;0.68;;;4.10;99.90;;;;;;5056678;28;20017;-72
2021/11/30 13:02:42;;;;;;;1.55;0.50;;;4.20;99.90;;;;;;5056518;28;20036;-74
2021/11/30 13:05:08;;;;;;;0.60;0.60;;;4.20;99.90;;;;;;5038632;28;20021;-74
2021/11/30 13:07:36;;;;;;;0.57;0.50;;;4.20;99.90;;;;;;5056472;28;20087;-74
2021/11/30 13:10:05;;;;;;;2.50;0.57;;;4.20;99.90;;;;;;5038772;28;20021;-74
2021/11/30 13:12:32;;;;;;;0.43;0.43;;;4.10;99.90;;;;;;5057430;28;20448;-75
2021/11/30 13:15:04;;;;;;;1.45;1.35;;;4.20;99.90;;;;;;5057021;28;20029;-74
2021/11/30 13:17:35;;;;;;;0.55;0.50;;;4.20;99.90;;;;;;5057952;28;20025;-74
2021/11/30 13:20:09;;;;;;;0.47;0.45;;;4.30;99.90;;;;;;5057904;28;20507;-73